createdAt,value
2023-04-30T00:00:13.450Z,13.49
2023-04-30T00:02:41.566Z,13.43
2023-04-30T00:05:10.442Z,13.55
2023-04-30T00:07:42.353Z,13.22
2023-04-30T00:10:10.814Z,13.22
2023-04-30T00:12:38.878Z,13.34
2023-04-30T00:15:09.083Z,13.35
2023-04-30T00:17:37.066Z,13.12
2023-04-30T00:20:05.734Z,13.24
2023-04-30T00:22:34.436Z,13.15
2023-04-30T00:25:02.254Z,13.02
2023-04-30T00:27:31.543Z,13.07
2023-04-30T00:29:59.487Z,12.82
2023-04-30T00:32:28.717Z,12.95
2023-04-30T00:34:56.474Z,12.75
2023-04-30T00:37:24.289Z,12.65
2023-04-30T00:39:52.304Z,12.59
2023-04-30T00:42:20.513Z,12.42
2023-04-30T00:44:48.223Z,12.33
2023-04-30T00:47:15.955Z,12.46
2023-04-30T00:49:45.192Z,12.39
2023-04-30T00:52:12.988Z,12.27
2023-04-30T00:54:41.501Z,12.19
2023-04-30T00:57:11.674Z,12.25
2023-04-30T00:59:40.357Z,12.23
2023-04-30T01:02:09.245Z,12.15
2023-04-30T01:04:37.403Z,12.38
2023-04-30T01:07:07.206Z,12.55
2023-04-30T01:09:35.206Z,12.70
2023-04-30T01:12:11.352Z,12.67
2023-04-30T01:14:54.356Z,12.56
2023-04-30T01:17:33.369Z,12.66
2023-04-30T01:20:02.719Z,12.58
2023-04-30T01:22:39.442Z,12.53
2023-04-30T01:25:36.481Z,12.70
2023-04-30T01:28:08.192Z,12.51
2023-04-30T01:30:37.644Z,12.25
2023-04-30T01:33:05.480Z,12.33
2023-04-30T01:35:50.539Z,12.49
2023-04-30T01:38:28.340Z,12.30
2023-04-30T01:41:00.769Z,12.47
2023-04-30T01:43:40.613Z,12.49
2023-04-30T01:46:15.397Z,12.44
2023-04-30T01:48:54.809Z,12.41
2023-04-30T01:51:30.780Z,12.51
2023-04-30T01:54:04.252Z,12.49
2023-04-30T01:56:34.311Z,12.57
2023-04-30T01:59:05.326Z,12.50
2023-04-30T02:01:34.335Z,12.40
2023-04-30T02:04:02.276Z,12.09
2023-04-30T02:06:30.380Z,12.35
2023-04-30T02:09:03.221Z,12.37
2023-04-30T02:11:31.482Z,12.42
2023-04-30T02:13:59.257Z,12.36
2023-04-30T02:16:28.522Z,12.41
2023-04-30T02:18:56.239Z,12.23
2023-04-30T02:21:24.019Z,12.29
2023-04-30T02:23:51.803Z,12.17
2023-04-30T02:26:19.552Z,12.16
2023-04-30T02:28:47.293Z,12.32
2023-04-30T02:31:15.384Z,12.28
2023-04-30T02:33:44.525Z,12.29
2023-04-30T02:36:12.274Z,12.47
2023-04-30T02:38:40.071Z,12.39
2023-04-30T02:41:07.884Z,12.43
2023-04-30T02:43:35.606Z,12.14
2023-04-30T02:46:03.367Z,12.44
2023-04-30T02:48:31.235Z,12.37
2023-04-30T02:51:00.276Z,12.32
2023-04-30T02:53:28.067Z,12.36
2023-04-30T02:55:55.845Z,12.48
2023-04-30T02:58:23.974Z,12.62
2023-04-30T03:00:51.722Z,12.43
2023-04-30T03:03:19.515Z,12.38
2023-04-30T03:05:47.391Z,12.45
2023-04-30T03:08:16.517Z,12.50
2023-04-30T03:10:44.272Z,12.52
2023-04-30T03:13:12.032Z,12.54
2023-04-30T03:15:39.744Z,12.38
2023-04-30T03:18:08.178Z,12.42
2023-04-30T03:20:35.921Z,12.54
2023-04-30T03:23:04.056Z,12.32
2023-04-30T03:25:33.255Z,12.41
2023-04-30T03:28:01.003Z,12.44
2023-04-30T03:30:29.490Z,12.49
2023-04-30T03:32:57.283Z,12.49
2023-04-30T03:35:25.534Z,12.50
2023-04-30T03:37:53.281Z,12.56
2023-04-30T03:40:21.102Z,12.48
2023-04-30T03:42:51.459Z,12.38
2023-04-30T03:45:19.390Z,12.34
2023-04-30T03:47:47.217Z,12.51
2023-04-30T03:50:14.947Z,12.56
2023-04-30T03:52:42.675Z,12.47
2023-04-30T03:55:11.459Z,12.41
2023-04-30T03:57:40.514Z,12.43
2023-04-30T04:00:11.268Z,12.52
2023-04-30T04:02:39.082Z,12.39
2023-04-30T04:05:08.090Z,12.35
2023-04-30T04:07:35.840Z,12.34
2023-04-30T04:10:03.740Z,12.39
2023-04-30T04:12:31.574Z,12.35
2023-04-30T04:14:59.344Z,12.23
2023-04-30T04:17:28.750Z,12.32
2023-04-30T04:19:57.233Z,12.29
2023-04-30T04:22:25.062Z,12.29
2023-04-30T04:24:52.889Z,12.23
2023-04-30T04:27:20.716Z,12.30
2023-04-30T04:29:48.620Z,12.36
2023-04-30T04:32:16.498Z,12.33
2023-04-30T04:34:45.892Z,12.24
2023-04-30T04:37:13.681Z,12.26
2023-04-30T04:39:41.508Z,12.35
2023-04-30T04:42:09.709Z,12.39
2023-04-30T04:44:37.652Z,12.34
2023-04-30T04:47:06.057Z,12.50
2023-04-30T04:49:33.941Z,12.40
2023-04-30T04:52:03.870Z,12.60
2023-04-30T04:54:31.628Z,12.53
2023-04-30T04:56:59.488Z,12.55
2023-04-30T04:59:27.761Z,12.74
2023-04-30T05:01:56.623Z,12.61
2023-04-30T05:04:24.659Z,12.49
2023-04-30T05:06:52.534Z,12.27
2023-04-30T05:09:21.712Z,12.33
2023-04-30T05:11:49.801Z,12.48
2023-04-30T05:14:17.583Z,12.57
2023-04-30T05:16:45.756Z,12.29
2023-04-30T05:19:13.579Z,12.34
2023-04-30T05:21:41.337Z,12.47
2023-04-30T05:24:09.122Z,12.43
2023-04-30T05:26:38.334Z,12.32
2023-04-30T05:29:06.177Z,12.37
2023-04-30T05:31:33.972Z,12.32
2023-04-30T05:34:01.756Z,12.32
2023-04-30T05:36:29.616Z,12.45
2023-04-30T05:38:57.909Z,12.39
2023-04-30T05:41:25.933Z,12.45
2023-04-30T05:43:55.511Z,12.60
2023-04-30T05:46:23.522Z,12.68
2023-04-30T05:48:51.318Z,12.73
2023-04-30T05:51:19.103Z,12.51
2023-04-30T05:53:46.989Z,12.63
2023-04-30T05:56:14.967Z,12.69
2023-04-30T05:58:42.792Z,12.73
2023-04-30T06:01:12.417Z,12.74
2023-04-30T06:03:40.350Z,12.77
2023-04-30T06:06:08.581Z,12.86
2023-04-30T06:08:36.394Z,12.74
2023-04-30T06:11:05.211Z,12.68
2023-04-30T06:13:33.242Z,12.92
2023-04-30T06:16:01.184Z,12.86
2023-04-30T06:18:33.070Z,12.89
2023-04-30T06:21:00.815Z,12.83
2023-04-30T06:23:28.652Z,12.80
2023-04-30T06:25:56.546Z,12.45
2023-04-30T06:28:24.476Z,12.42
2023-04-30T06:30:54.243Z,12.53
2023-04-30T06:33:22.167Z,12.63
2023-04-30T06:35:54.756Z,12.77
2023-04-30T06:38:22.551Z,12.70
2023-04-30T06:40:50.522Z,12.77
2023-04-30T06:43:18.609Z,12.93
2023-04-30T06:45:46.429Z,12.82
2023-04-30T06:48:14.284Z,12.68
2023-04-30T06:50:45.125Z,12.90
2023-04-30T06:53:14.871Z,12.67
2023-04-30T06:55:43.173Z,12.79
2023-04-30T06:58:11.172Z,12.83
2023-04-30T07:00:38.909Z,12.85
2023-04-30T07:03:07.064Z,12.89
2023-04-30T07:05:35.132Z,12.78
2023-04-30T07:08:03.895Z,12.91
2023-04-30T07:10:33.236Z,12.90
2023-04-30T07:13:01.085Z,12.83
2023-04-30T07:15:30.012Z,12.90
2023-04-30T07:17:57.846Z,13.07
2023-04-30T07:20:25.860Z,13.39
2023-04-30T07:22:55.019Z,13.39
2023-04-30T07:25:22.861Z,13.60
2023-04-30T07:27:52.906Z,13.80
2023-04-30T07:30:21.448Z,13.72
2023-04-30T07:32:50.224Z,13.95
2023-04-30T07:35:18.017Z,13.82
2023-04-30T07:37:45.791Z,13.61
2023-04-30T07:40:22.048Z,13.69
2023-04-30T07:42:54.425Z,13.70
2023-04-30T07:45:22.198Z,13.48
2023-04-30T07:47:49.986Z,13.48
2023-04-30T07:50:18.396Z,13.52
2023-04-30T07:52:46.103Z,13.42
2023-04-30T07:55:14.524Z,13.15
2023-04-30T07:57:42.430Z,13.66
2023-04-30T08:00:13.616Z,13.71
2023-04-30T08:02:44.073Z,13.70
2023-04-30T08:05:12.407Z,13.68
2023-04-30T08:07:40.789Z,13.92
2023-04-30T08:10:09.570Z,13.89
2023-04-30T08:12:37.464Z,14.16
2023-04-30T08:15:07.420Z,14.17
2023-04-30T08:17:37.104Z,14.32
2023-04-30T08:20:05.912Z,14.28
2023-04-30T08:22:33.979Z,14.15
2023-04-30T08:25:02.450Z,14.10
2023-04-30T08:27:32.245Z,14.15
2023-04-30T08:30:00.096Z,14.23
2023-04-30T08:32:29.109Z,14.42
2023-04-30T08:34:58.304Z,14.47
2023-04-30T08:37:26.131Z,14.54
2023-04-30T08:39:54.540Z,14.21
2023-04-30T08:42:26.451Z,14.23
2023-04-30T08:44:54.281Z,14.26
2023-04-30T08:47:22.080Z,14.37
2023-04-30T08:49:49.908Z,14.28
2023-04-30T08:52:20.217Z,14.52
2023-04-30T08:54:49.137Z,14.95
2023-04-30T08:57:16.881Z,15.20
2023-04-30T08:59:46.948Z,14.65
2023-04-30T09:02:14.813Z,15.20
2023-04-30T09:04:42.673Z,14.88
2023-04-30T09:07:11.948Z,14.97
2023-04-30T09:09:41.731Z,14.86
2023-04-30T09:12:17.835Z,14.95
2023-04-30T09:15:00.510Z,14.97
2023-04-30T09:17:28.279Z,15.34
2023-04-30T09:19:57.553Z,15.37
2023-04-30T09:22:25.930Z,15.15
2023-04-30T09:24:55.042Z,14.83
2023-04-30T09:27:24.267Z,15.35
2023-04-30T09:29:52.207Z,15.35
2023-04-30T09:32:20.452Z,15.50
2023-04-30T09:34:48.276Z,15.47
2023-04-30T09:37:16.236Z,15.50
2023-04-30T09:39:51.486Z,15.75
2023-04-30T09:42:21.249Z,15.67
2023-04-30T09:44:49.752Z,16.19
2023-04-30T09:47:19.143Z,16.38
2023-04-30T09:49:51.854Z,16.01
2023-04-30T09:52:21.111Z,16.07
2023-04-30T09:54:49.567Z,15.71
2023-04-30T09:57:17.779Z,16.23
2023-04-30T09:59:48.159Z,17.35
2023-04-30T10:02:18.400Z,17.85
2023-04-30T10:04:50.356Z,18.33
2023-04-30T10:07:20.880Z,17.25
2023-04-30T10:09:51.735Z,17.13
2023-04-30T10:12:25.642Z,16.57
2023-04-30T10:15:00.432Z,16.50
2023-04-30T10:17:33.717Z,16.70
2023-04-30T10:20:06.556Z,17.79
2023-04-30T10:22:35.982Z,20.18
2023-04-30T10:25:04.033Z,21.19
2023-04-30T10:27:33.105Z,20.35
2023-04-30T10:30:02.809Z,20.06
2023-04-30T10:32:39.836Z,20.07
2023-04-30T10:35:15.772Z,19.32
2023-04-30T10:37:51.587Z,19.07
2023-04-30T10:40:20.460Z,19.39
2023-04-30T10:42:50.504Z,20.66
2023-04-30T10:45:20.766Z,19.88
2023-04-30T10:47:48.535Z,21.74
2023-04-30T10:50:16.546Z,20.10
2023-04-30T10:52:45.397Z,21.37
2023-04-30T10:55:18.291Z,22.05
2023-04-30T10:57:48.366Z,21.99
2023-04-30T11:00:27.325Z,21.37
2023-04-30T11:02:59.371Z,20.97
2023-04-30T11:05:36.767Z,21.02
2023-04-30T11:08:04.914Z,19.72
2023-04-30T11:10:34.814Z,19.28
2023-04-30T11:13:06.852Z,19.02
2023-04-30T11:15:41.874Z,18.69
2023-04-30T11:18:10.640Z,18.43
2023-04-30T11:20:42.725Z,18.69
2023-04-30T11:23:11.385Z,19.06
2023-04-30T11:25:43.969Z,18.91
2023-04-30T11:28:17.801Z,19.93
2023-04-30T11:30:54.379Z,20.03
2023-04-30T11:33:23.185Z,19.08
2023-04-30T11:35:53.057Z,18.50
2023-04-30T11:38:23.086Z,18.29
2023-04-30T11:40:52.354Z,18.12
2023-04-30T11:43:27.288Z,18.15
2023-04-30T11:46:18.559Z,18.06
2023-04-30T11:48:47.370Z,18.57
2023-04-30T11:51:16.400Z,18.49
2023-04-30T11:53:46.767Z,18.61
2023-04-30T11:56:14.602Z,18.65
2023-04-30T11:58:42.434Z,18.74
2023-04-30T12:01:11.180Z,18.28
2023-04-30T12:03:44.904Z,18.38
2023-04-30T12:06:13.697Z,17.94
2023-04-30T12:08:43.188Z,18.44
2023-04-30T12:11:25.836Z,18.60
2023-04-30T12:13:58.046Z,18.05
2023-04-30T12:16:26.094Z,18.59
2023-04-30T12:18:55.854Z,19.02
2023-04-30T12:21:24.314Z,18.96
2023-04-30T12:23:52.152Z,18.80
2023-04-30T12:26:19.879Z,18.92
2023-04-30T12:28:49.669Z,18.41
2023-04-30T12:31:18.890Z,18.17
2023-04-30T12:33:56.470Z,18.09
2023-04-30T12:36:30.242Z,18.07
2023-04-30T12:39:03.709Z,17.90
2023-04-30T12:41:31.480Z,17.97
2023-04-30T12:44:21.521Z,17.65
2023-04-30T12:46:50.378Z,17.82
2023-04-30T12:49:26.826Z,18.01
2023-04-30T12:52:00.568Z,17.86
2023-04-30T12:54:29.509Z,18.02
2023-04-30T12:57:05.098Z,17.83
2023-04-30T12:59:36.477Z,17.90
2023-04-30T13:02:11.925Z,17.81
2023-04-30T13:04:42.135Z,17.83
2023-04-30T13:07:10.037Z,17.78
2023-04-30T13:09:39.308Z,17.86
2023-04-30T13:12:07.522Z,17.60
2023-04-30T13:14:35.811Z,17.46
2023-04-30T13:17:06.210Z,17.62
2023-04-30T13:19:34.639Z,17.14
2023-04-30T13:22:03.832Z,17.22
2023-04-30T13:24:31.606Z,17.21
2023-04-30T13:26:59.865Z,17.33
2023-04-30T13:29:27.750Z,17.47
2023-04-30T13:31:55.881Z,17.62
2023-04-30T13:34:23.921Z,17.51
2023-04-30T13:36:52.573Z,17.56
2023-04-30T13:39:21.969Z,17.35
2023-04-30T13:41:49.979Z,17.67
2023-04-30T13:44:18.106Z,17.51
2023-04-30T13:46:46.181Z,17.56
2023-04-30T13:49:13.940Z,17.74
2023-04-30T13:51:42.240Z,17.51
2023-04-30T13:54:10.077Z,17.39
2023-04-30T13:56:39.428Z,17.39
2023-04-30T13:59:07.299Z,17.47
2023-04-30T14:01:35.132Z,17.34
2023-04-30T14:04:03.104Z,17.58
2023-04-30T14:06:31.230Z,17.46
2023-04-30T14:08:59.005Z,17.46
2023-04-30T14:11:27.463Z,17.53
2023-04-30T14:13:56.611Z,17.62
2023-04-30T14:16:24.464Z,17.65
2023-04-30T14:18:52.360Z,17.47
2023-04-30T14:21:20.288Z,17.58
2023-04-30T14:23:48.193Z,17.58
2023-04-30T14:26:16.364Z,17.69
2023-04-30T14:28:44.203Z,17.41
2023-04-30T14:31:13.438Z,17.55
2023-04-30T14:33:41.252Z,17.50
2023-04-30T14:36:09.368Z,17.72
2023-04-30T14:38:36.999Z,17.52
2023-04-30T14:41:04.739Z,17.49
2023-04-30T14:43:32.530Z,17.49
2023-04-30T14:46:00.263Z,17.54
2023-04-30T14:48:29.606Z,17.41
2023-04-30T14:50:57.315Z,17.71
2023-04-30T14:53:25.053Z,17.39
2023-04-30T14:55:52.791Z,17.23
2023-04-30T14:58:21.059Z,17.32
2023-04-30T15:00:49.366Z,17.28
2023-04-30T15:03:17.644Z,17.07
2023-04-30T15:05:46.834Z,17.20
2023-04-30T15:08:14.559Z,16.76
2023-04-30T15:10:42.567Z,17.16
2023-04-30T15:13:10.833Z,16.96
2023-04-30T15:15:39.570Z,16.91
2023-04-30T15:18:07.831Z,17.04
2023-04-30T15:20:35.989Z,16.94
2023-04-30T15:23:05.459Z,17.12
2023-04-30T15:25:33.583Z,17.15
2023-04-30T15:28:01.577Z,16.98
2023-04-30T15:30:29.526Z,17.06
2023-04-30T15:32:57.346Z,16.93
2023-04-30T15:35:26.530Z,16.81
2023-04-30T15:37:54.531Z,16.78
2023-04-30T15:40:24.279Z,16.79
2023-04-30T15:42:52.084Z,16.95
2023-04-30T15:45:20.771Z,17.03
2023-04-30T15:47:48.580Z,16.91
2023-04-30T15:50:16.424Z,16.89
2023-04-30T15:52:44.184Z,16.95
2023-04-30T15:55:11.983Z,17.05
2023-04-30T15:57:41.119Z,17.10
2023-04-30T16:00:10.730Z,17.01
2023-04-30T16:02:38.624Z,16.97
2023-04-30T16:05:07.231Z,16.96
2023-04-30T16:07:35.516Z,16.85
2023-04-30T16:10:03.957Z,17.03
2023-04-30T16:12:31.850Z,16.98
2023-04-30T16:15:01.050Z,16.83
2023-04-30T16:17:29.145Z,16.93
2023-04-30T16:19:57.663Z,16.99
2023-04-30T16:22:26.988Z,16.95
2023-04-30T16:24:54.844Z,16.92
2023-04-30T16:27:22.616Z,17.01
2023-04-30T16:29:50.440Z,16.87
2023-04-30T16:32:19.617Z,16.83
2023-04-30T16:34:47.538Z,16.87
2023-04-30T16:37:15.657Z,16.76
2023-04-30T16:39:43.397Z,16.87
2023-04-30T16:42:11.492Z,16.62
2023-04-30T16:44:39.605Z,16.77
2023-04-30T16:47:08.934Z,16.76
2023-04-30T16:49:38.081Z,16.73
2023-04-30T16:52:06.245Z,16.63
2023-04-30T16:54:33.945Z,16.73
2023-04-30T16:57:04.587Z,16.76
2023-04-30T16:59:32.410Z,16.59
2023-04-30T17:02:01.897Z,16.63
2023-04-30T17:04:29.673Z,16.42
2023-04-30T17:06:59.217Z,16.53
2023-04-30T17:09:27.083Z,16.60
2023-04-30T17:11:54.873Z,16.68
2023-04-30T17:14:23.258Z,16.67
2023-04-30T17:16:50.997Z,16.69
2023-04-30T17:19:18.886Z,16.73
2023-04-30T17:21:46.690Z,16.65
2023-04-30T17:24:16.039Z,16.55
2023-04-30T17:26:44.177Z,16.45
2023-04-30T17:29:11.990Z,16.46
2023-04-30T17:31:42.043Z,16.53
2023-04-30T17:34:10.154Z,16.24
2023-04-30T17:36:37.836Z,16.33
2023-04-30T17:39:06.404Z,16.02
2023-04-30T17:41:35.539Z,16.10
2023-04-30T17:44:03.421Z,16.09
2023-04-30T17:46:31.277Z,16.12
2023-04-30T17:49:01.654Z,16.13
2023-04-30T17:51:31.560Z,16.11
2023-04-30T17:54:00.157Z,15.86
2023-04-30T17:56:30.090Z,16.11
2023-04-30T17:58:59.857Z,16.20
2023-04-30T18:01:28.187Z,16.05
2023-04-30T18:03:56.133Z,16.07
2023-04-30T18:06:24.067Z,16.04
2023-04-30T18:08:51.830Z,16.10
2023-04-30T18:11:19.630Z,16.03
2023-04-30T18:13:47.394Z,16.10
2023-04-30T18:16:16.538Z,16.01
2023-04-30T18:18:44.368Z,16.02
2023-04-30T18:21:12.207Z,15.97
2023-04-30T18:23:40.188Z,15.96
2023-04-30T18:26:07.920Z,15.82
2023-04-30T18:28:35.743Z,15.70
2023-04-30T18:31:03.606Z,15.61
2023-04-30T18:33:32.844Z,15.46
2023-04-30T18:36:05.381Z,15.39
2023-04-30T18:38:33.668Z,15.46
2023-04-30T18:41:02.043Z,15.42
2023-04-30T18:43:29.927Z,15.52
2023-04-30T18:45:57.816Z,15.56
2023-04-30T18:48:25.711Z,15.41
2023-04-30T18:50:54.808Z,15.63
2023-04-30T18:53:22.549Z,15.60
2023-04-30T18:55:50.337Z,15.62
2023-04-30T18:58:18.079Z,15.25
2023-04-30T19:00:45.886Z,15.18
2023-04-30T19:03:13.788Z,15.22
2023-04-30T19:05:42.671Z,15.14
2023-04-30T19:08:11.860Z,15.24
2023-04-30T19:10:39.566Z,15.39
2023-04-30T19:13:07.966Z,15.67
2023-04-30T19:15:36.338Z,15.32
2023-04-30T19:18:04.336Z,15.66
2023-04-30T19:20:32.142Z,15.66
2023-04-30T19:23:00.162Z,15.62
2023-04-30T19:25:29.349Z,15.25
2023-04-30T19:27:57.117Z,15.13
2023-04-30T19:30:25.073Z,15.15
2023-04-30T19:32:52.835Z,15.08
2023-04-30T19:35:20.793Z,15.08
2023-04-30T19:37:48.607Z,14.94
2023-04-30T19:40:18.358Z,14.86
2023-04-30T19:42:47.636Z,14.70
2023-04-30T19:45:15.520Z,14.70
2023-04-30T19:47:43.302Z,14.70
2023-04-30T19:50:11.502Z,14.76
2023-04-30T19:52:39.630Z,14.70
2023-04-30T19:55:08.304Z,14.57
2023-04-30T19:57:36.315Z,14.66
2023-04-30T20:00:06.387Z,14.61
2023-04-30T20:02:34.161Z,14.61
2023-04-30T20:05:01.931Z,14.56
2023-04-30T20:07:29.726Z,14.55
2023-04-30T20:09:57.747Z,14.51
2023-04-30T20:12:25.733Z,14.55
2023-04-30T20:14:53.919Z,14.56
2023-04-30T20:17:23.173Z,14.64
2023-04-30T20:19:50.951Z,14.43
2023-04-30T20:22:18.792Z,14.46
2023-04-30T20:24:46.932Z,14.53
2023-04-30T20:27:14.684Z,14.46
2023-04-30T20:29:42.719Z,14.26
2023-04-30T20:32:10.531Z,14.18
2023-04-30T20:34:39.760Z,14.07
2023-04-30T20:37:07.445Z,14.17
2023-04-30T20:39:35.212Z,14.13
2023-04-30T20:42:04.027Z,14.18
2023-04-30T20:44:31.791Z,14.13
2023-04-30T20:46:59.649Z,14.13
2023-04-30T20:49:27.931Z,14.13
2023-04-30T20:51:57.509Z,14.16
2023-04-30T20:54:25.379Z,14.10
2023-04-30T20:56:53.121Z,14.05
2023-04-30T20:59:20.883Z,14.02
2023-04-30T21:01:48.680Z,13.96
2023-04-30T21:04:16.588Z,13.97
2023-04-30T21:06:44.675Z,13.97
2023-04-30T21:09:13.902Z,14.05
2023-04-30T21:11:42.471Z,14.08
2023-04-30T21:14:10.201Z,14.09
2023-04-30T21:16:38.140Z,14.08
2023-04-30T21:19:05.845Z,14.06
2023-04-30T21:21:33.849Z,14.03
2023-04-30T21:24:02.105Z,13.97
2023-04-30T21:26:31.417Z,13.93
2023-04-30T21:28:59.158Z,14.00
2023-04-30T21:31:27.896Z,14.06
2023-04-30T21:33:56.027Z,14.14
2023-04-30T21:36:23.873Z,14.03
2023-04-30T21:38:51.758Z,14.08
2023-04-30T21:41:19.834Z,14.03
2023-04-30T21:43:48.867Z,14.09
2023-04-30T21:46:16.653Z,13.99
2023-04-30T21:48:44.420Z,13.99
2023-04-30T21:51:17.064Z,13.81
2023-04-30T21:53:45.462Z,13.90
2023-04-30T21:56:13.809Z,13.91
2023-04-30T21:58:41.621Z,13.81
2023-04-30T22:01:10.846Z,13.80
2023-04-30T22:03:39.711Z,13.86
2023-04-30T22:06:08.167Z,13.94
2023-04-30T22:08:38.468Z,13.86
2023-04-30T22:11:06.289Z,13.81
2023-04-30T22:13:33.995Z,13.80
2023-04-30T22:16:02.071Z,13.68
2023-04-30T22:18:31.289Z,13.63
2023-04-30T22:21:00.524Z,13.48
2023-04-30T22:23:29.152Z,13.53
2023-04-30T22:25:56.997Z,13.43
2023-04-30T22:28:24.754Z,13.33
2023-04-30T22:30:59.715Z,13.36
2023-04-30T22:33:28.273Z,13.30
2023-04-30T22:35:57.608Z,13.39
2023-04-30T22:38:25.289Z,13.29
2023-04-30T22:40:53.098Z,13.24
2023-04-30T22:43:20.953Z,13.29
2023-04-30T22:45:48.752Z,13.34
2023-04-30T22:48:17.423Z,13.30
2023-04-30T22:50:45.388Z,13.31
2023-04-30T22:53:15.224Z,13.19
2023-04-30T22:55:43.036Z,13.40
2023-04-30T22:58:10.822Z,13.27
2023-04-30T23:00:38.703Z,13.32
2023-04-30T23:03:06.549Z,13.26
2023-04-30T23:05:34.339Z,13.29
2023-04-30T23:08:02.122Z,13.25
2023-04-30T23:10:31.315Z,13.29
2023-04-30T23:12:59.100Z,13.24
2023-04-30T23:15:27.091Z,13.20
2023-04-30T23:17:57.066Z,13.17
2023-04-30T23:20:24.916Z,13.17
2023-04-30T23:22:52.594Z,13.14
2023-04-30T23:25:20.370Z,13.07
2023-04-30T23:27:49.498Z,13.10
2023-04-30T23:30:17.296Z,13.20
2023-04-30T23:32:45.143Z,12.99
2023-04-30T23:35:13.001Z,13.01
2023-04-30T23:37:40.771Z,13.02
2023-04-30T23:40:10.171Z,12.98
2023-04-30T23:42:37.971Z,12.75
2023-04-30T23:45:08.310Z,12.84
2023-04-30T23:47:36.830Z,12.81
2023-04-30T23:50:04.879Z,12.92
2023-04-30T23:52:33.176Z,12.90
2023-04-30T23:55:00.950Z,12.95
2023-04-30T23:57:28.662Z,12.85
2023-04-30T23:59:56.720Z,12.87
